createdAt,value
2022-12-25T00:02:05.615Z,10.50
2022-12-25T00:05:08.907Z,10.10
2022-12-25T00:08:11.703Z,13.60
2022-12-25T00:11:17.194Z,12.10
2022-12-25T00:14:20.229Z,12.80
2022-12-25T00:17:23.137Z,10.10
2022-12-25T00:20:25.949Z,8.90
2022-12-25T00:23:29.348Z,9.20
2022-12-25T00:26:32.493Z,7.40
2022-12-25T00:29:35.519Z,8.70
2022-12-25T00:32:38.555Z,9.40
2022-12-25T00:35:41.515Z,7.40
2022-12-25T00:38:46.686Z,7.20
2022-12-25T00:42:08.242Z,7.30
2022-12-25T00:45:11.058Z,6.40
2022-12-25T00:48:13.883Z,8.00
2022-12-25T00:51:16.699Z,6.80
2022-12-25T00:54:19.921Z,7.00
2022-12-25T00:57:23.012Z,8.20
2022-12-25T01:00:25.872Z,5.50
2022-12-25T01:03:28.827Z,8.00
2022-12-25T01:06:32.503Z,6.10
2022-12-25T01:09:54.066Z,7.80
2022-12-25T01:12:57.013Z,5.50
2022-12-25T01:15:59.925Z,6.70
2022-12-25T01:19:03.787Z,9.50
2022-12-25T01:22:06.884Z,5.70
2022-12-25T01:25:10.767Z,6.10
2022-12-25T01:28:13.850Z,6.50
2022-12-25T01:31:18.912Z,5.70
2022-12-25T01:34:21.815Z,5.30
2022-12-25T01:37:25.603Z,8.30
2022-12-25T01:40:28.483Z,4.70
2022-12-25T01:43:33.732Z,6.70
2022-12-25T01:46:36.784Z,5.10
2022-12-25T01:49:42.556Z,4.20
2022-12-25T01:52:46.579Z,6.20
2022-12-25T01:55:54.622Z,3.90
2022-12-25T01:58:58.623Z,6.30
2022-12-25T02:02:01.877Z,5.20
2022-12-25T02:05:13.992Z,4.40
2022-12-25T02:08:20.616Z,5.70
2022-12-25T02:11:42.055Z,6.50
2022-12-25T02:14:46.094Z,7.30
2022-12-25T02:18:03.012Z,5.80
2022-12-25T02:22:00.456Z,6.60
2022-12-25T02:25:38.721Z,7.10
2022-12-25T02:28:47.670Z,6.60
2022-12-25T02:31:53.622Z,5.00
2022-12-25T02:35:03.176Z,6.70
2022-12-25T02:38:20.352Z,5.50
2022-12-25T02:41:23.338Z,6.70
2022-12-25T02:45:01.279Z,6.80
2022-12-25T02:48:24.033Z,8.00
2022-12-25T02:51:50.119Z,6.50
2022-12-25T02:55:18.550Z,7.50
2022-12-25T02:58:43.126Z,5.80
2022-12-25T03:02:05.331Z,7.90
2022-12-25T03:05:31.458Z,6.10
2022-12-25T03:08:41.606Z,7.30
2022-12-25T03:11:52.484Z,6.10
2022-12-25T03:15:13.988Z,8.40
2022-12-25T03:18:20.052Z,5.90
2022-12-25T03:21:41.654Z,6.00
2022-12-25T03:25:03.149Z,7.30
2022-12-25T03:28:06.627Z,7.60
2022-12-25T03:31:30.494Z,7.10
2022-12-25T03:35:12.526Z,7.80
2022-12-25T03:38:48.465Z,10.30
2022-12-25T03:42:17.046Z,10.20
2022-12-25T03:45:47.699Z,4.60
2022-12-25T03:49:17.252Z,8.70
2022-12-25T03:52:39.985Z,9.10
2022-12-25T03:56:02.582Z,7.30
2022-12-25T03:59:24.462Z,6.20
2022-12-25T04:02:46.509Z,7.00
2022-12-25T04:06:25.215Z,7.80
2022-12-25T04:09:47.003Z,8.60
2022-12-25T04:13:08.364Z,7.50
2022-12-25T04:16:30.003Z,5.80
2022-12-25T04:19:58.710Z,6.70
2022-12-25T04:23:20.364Z,8.30
2022-12-25T04:26:42.045Z,9.60
2022-12-25T04:30:11.038Z,7.10
2022-12-25T04:33:32.614Z,10.10
2022-12-25T04:36:35.423Z,8.50
2022-12-25T04:39:38.238Z,11.30
2022-12-25T04:42:42.318Z,10.00
2022-12-25T04:45:55.830Z,10.30
2022-12-25T04:48:58.656Z,7.80
2022-12-25T04:52:01.462Z,8.10
2022-12-25T04:55:05.305Z,6.20
2022-12-25T04:58:08.471Z,7.60
2022-12-25T05:01:12.660Z,8.10
2022-12-25T05:04:15.453Z,9.10
2022-12-25T05:07:18.261Z,6.30
2022-12-25T05:10:21.160Z,6.80
2022-12-25T05:13:24.939Z,8.50
2022-12-25T05:16:28.013Z,7.10
2022-12-25T05:19:31.857Z,10.60
2022-12-25T05:22:34.777Z,7.30
2022-12-25T05:25:41.126Z,8.50
2022-12-25T05:31:46.881Z,7.00
2022-12-25T05:34:49.749Z,8.00
2022-12-25T05:37:52.589Z,11.90
2022-12-25T05:40:55.435Z,8.00
2022-12-25T05:43:58.259Z,14.30
2022-12-25T05:47:01.118Z,7.60
2022-12-25T05:50:05.135Z,8.80
2022-12-25T05:53:09.612Z,11.90
2022-12-25T05:56:12.642Z,8.70
2022-12-25T05:59:15.487Z,8.90
2022-12-25T06:02:18.417Z,9.30
2022-12-25T06:05:21.409Z,9.50
2022-12-25T06:08:24.309Z,9.00
2022-12-25T06:11:27.264Z,9.40
2022-12-25T06:14:30.130Z,13.50
2022-12-25T06:17:33.089Z,12.60
2022-12-25T06:20:36.029Z,12.10
2022-12-25T06:23:39.371Z,11.00
2022-12-25T06:26:42.596Z,13.30
2022-12-25T06:29:45.580Z,10.10
2022-12-25T06:32:48.697Z,8.90
2022-12-25T06:35:51.522Z,8.30
2022-12-25T06:38:54.524Z,9.90
2022-12-25T06:41:57.541Z,15.60
2022-12-25T06:45:00.383Z,14.70
2022-12-25T06:48:03.412Z,13.80
2022-12-25T06:51:07.349Z,13.20
2022-12-25T06:54:11.836Z,12.10
2022-12-25T06:57:14.716Z,10.00
2022-12-25T07:00:17.707Z,11.60
2022-12-25T07:03:22.278Z,11.60
2022-12-25T07:06:25.729Z,12.60
2022-12-25T07:09:28.603Z,10.70
2022-12-25T07:12:31.416Z,12.00
2022-12-25T07:15:34.303Z,12.30
2022-12-25T07:18:37.447Z,9.70
2022-12-25T07:21:40.347Z,10.90
2022-12-25T07:24:43.573Z,13.50
2022-12-25T07:27:46.535Z,10.20
2022-12-25T07:30:49.695Z,12.90
2022-12-25T07:33:55.839Z,11.20
2022-12-25T07:36:58.919Z,12.60
2022-12-25T07:40:02.322Z,12.30
2022-12-25T07:43:05.676Z,11.60
2022-12-25T07:46:09.726Z,14.90
2022-12-25T07:49:12.922Z,11.00
2022-12-25T07:52:16.068Z,15.60
2022-12-25T07:55:19.107Z,11.80
2022-12-25T07:58:23.595Z,12.00
2022-12-25T08:01:28.111Z,15.80
2022-12-25T08:04:31.776Z,14.20
2022-12-25T08:07:38.792Z,14.50
2022-12-25T08:10:46.651Z,13.10
2022-12-25T08:13:50.440Z,12.80
2022-12-25T08:16:53.926Z,12.50
2022-12-25T08:19:58.006Z,12.80
2022-12-25T08:23:02.244Z,14.00
2022-12-25T08:26:09.236Z,15.10
2022-12-25T08:29:13.577Z,11.90
2022-12-25T08:32:18.936Z,11.00
2022-12-25T08:35:28.275Z,12.60
2022-12-25T08:38:34.229Z,10.20
2022-12-25T08:44:48.801Z,9.70
2022-12-25T08:47:57.800Z,9.80
2022-12-25T08:51:03.780Z,9.90
2022-12-25T08:54:06.708Z,7.70
2022-12-25T08:57:09.930Z,7.90
2022-12-25T09:00:13.367Z,9.00
2022-12-25T09:03:16.204Z,10.00
2022-12-25T09:06:19.050Z,11.70
2022-12-25T09:09:27.370Z,10.30
2022-12-25T09:12:30.178Z,10.90
2022-12-25T09:15:32.994Z,9.80
2022-12-25T09:18:36.036Z,10.40
2022-12-25T09:21:38.869Z,6.40
2022-12-25T09:24:43.825Z,7.80
2022-12-25T09:27:46.740Z,7.60
2022-12-25T09:30:53.234Z,9.30
2022-12-25T09:33:58.126Z,9.40
2022-12-25T09:37:02.003Z,8.90
2022-12-25T09:40:05.564Z,7.90
2022-12-25T09:43:16.789Z,8.10
2022-12-25T09:46:23.886Z,8.10
2022-12-25T09:49:47.260Z,8.40
2022-12-25T09:53:17.307Z,6.90
2022-12-25T09:56:27.101Z,6.70
2022-12-25T09:59:30.757Z,8.30
2022-12-25T10:02:48.316Z,7.20
2022-12-25T10:06:13.370Z,9.00
2022-12-25T10:09:27.517Z,7.00
2022-12-25T10:12:37.096Z,6.80
2022-12-25T10:16:03.193Z,7.30
2022-12-25T10:19:18.129Z,7.10
2022-12-25T10:22:38.030Z,7.50
2022-12-25T10:25:41.968Z,7.90
2022-12-25T10:28:47.889Z,7.60
2022-12-25T10:31:55.459Z,12.00
2022-12-25T10:34:58.368Z,7.00
2022-12-25T10:38:19.072Z,7.80
2022-12-25T10:41:59.805Z,8.00
2022-12-25T10:45:08.246Z,8.40
2022-12-25T10:48:25.933Z,4.30
2022-12-25T10:51:31.820Z,7.00
2022-12-25T10:54:36.113Z,4.60
2022-12-25T10:57:46.142Z,4.70
2022-12-25T11:00:54.567Z,6.10
2022-12-25T11:03:57.623Z,6.50
2022-12-25T11:07:18.627Z,5.20
2022-12-25T11:10:31.190Z,9.20
2022-12-25T11:13:47.777Z,8.20
2022-12-25T11:16:50.654Z,7.80
2022-12-25T11:19:59.424Z,4.90
2022-12-25T11:23:02.229Z,4.90
2022-12-25T11:26:07.879Z,5.60
2022-12-25T11:29:35.323Z,6.00
2022-12-25T11:32:43.592Z,5.90
2022-12-25T11:35:53.020Z,3.70
2022-12-25T11:38:57.394Z,3.80
2022-12-25T11:42:21.339Z,5.50
2022-12-25T11:48:34.207Z,7.00
2022-12-25T11:51:42.306Z,3.90
2022-12-25T11:54:55.034Z,6.00
2022-12-25T11:58:04.890Z,7.70
2022-12-25T12:01:27.707Z,5.60
2022-12-25T12:04:42.693Z,7.40
2022-12-25T12:08:06.320Z,7.40
2022-12-25T12:11:20.703Z,6.80
2022-12-25T12:14:23.522Z,7.10
2022-12-25T12:17:26.680Z,7.10
2022-12-25T12:20:35.592Z,6.90
2022-12-25T12:24:10.788Z,4.70
2022-12-25T12:27:32.238Z,9.30
2022-12-25T12:30:35.721Z,5.30
2022-12-25T12:33:44.215Z,5.90
2022-12-25T12:36:47.063Z,5.80
2022-12-25T12:39:54.225Z,5.80
2022-12-25T12:42:57.090Z,5.10
2022-12-25T12:46:16.192Z,5.30
2022-12-25T12:49:28.491Z,6.10
2022-12-25T12:52:38.995Z,3.40
2022-12-25T12:55:42.039Z,5.50
2022-12-25T12:58:51.124Z,5.30
2022-12-25T13:02:11.135Z,5.60
2022-12-25T13:05:41.378Z,5.50
2022-12-25T13:09:05.125Z,4.80
2022-12-25T13:12:08.917Z,5.80
2022-12-25T13:15:14.043Z,7.90
2022-12-25T13:18:17.558Z,5.30
2022-12-25T13:21:26.917Z,7.10
2022-12-25T13:24:32.602Z,6.00
2022-12-25T13:27:35.557Z,6.60
2022-12-25T13:30:38.435Z,5.60
2022-12-25T13:33:45.662Z,7.60
2022-12-25T13:36:48.672Z,6.00
2022-12-25T13:39:55.159Z,6.60
2022-12-25T13:43:01.920Z,6.20
2022-12-25T13:46:05.545Z,5.70
2022-12-25T13:49:17.949Z,4.80
2022-12-25T13:52:28.656Z,5.00
2022-12-25T13:55:33.851Z,8.10
2022-12-25T13:58:37.465Z,7.80
2022-12-25T14:01:45.097Z,9.10
2022-12-25T14:04:48.123Z,9.80
2022-12-25T14:07:53.546Z,11.00
2022-12-25T14:10:57.516Z,10.30
2022-12-25T14:14:04.254Z,9.10
2022-12-25T14:17:07.243Z,11.00
2022-12-25T14:20:26.209Z,8.40
2022-12-25T14:23:43.393Z,9.40
2022-12-25T14:26:46.295Z,10.80
2022-12-25T14:29:51.899Z,9.20
2022-12-25T14:32:56.007Z,9.40
2022-12-25T14:35:59.276Z,8.20
2022-12-25T14:39:05.840Z,9.40
2022-12-25T14:42:23.859Z,10.00
2022-12-25T14:45:35.002Z,11.10
2022-12-25T14:48:37.782Z,8.80
2022-12-25T14:51:43.142Z,10.30
2022-12-25T14:54:49.134Z,12.30
2022-12-25T14:57:57.176Z,9.10
2022-12-25T15:01:02.932Z,9.70
2022-12-25T15:04:13.358Z,9.40
2022-12-25T15:07:30.846Z,12.50
2022-12-25T15:13:57.774Z,12.20
2022-12-25T15:17:01.695Z,10.10
2022-12-25T15:20:05.583Z,10.60
2022-12-25T15:23:20.083Z,8.10
2022-12-25T15:26:24.293Z,6.90
2022-12-25T15:30:00.160Z,7.30
2022-12-25T15:32:50.328Z,7.40
2022-12-25T15:35:53.175Z,8.20
2022-12-25T15:38:56.843Z,10.40
2022-12-25T15:42:12.762Z,9.50
2022-12-25T15:45:25.717Z,14.00
2022-12-25T15:48:28.809Z,9.60
2022-12-25T15:51:32.026Z,8.20
2022-12-25T15:54:34.915Z,7.10
2022-12-25T15:57:41.081Z,7.00
2022-12-25T16:00:51.656Z,7.90
2022-12-25T16:03:54.670Z,7.10
2022-12-25T16:06:58.159Z,6.80
2022-12-25T16:10:01.067Z,6.50
2022-12-25T16:13:04.161Z,8.00
2022-12-25T16:16:07.424Z,6.70
2022-12-25T16:19:10.285Z,8.30
2022-12-25T16:22:18.412Z,5.50
2022-12-25T16:25:21.360Z,10.80
2022-12-25T16:28:24.267Z,8.30
2022-12-25T16:31:27.188Z,8.10
2022-12-25T16:34:30.020Z,10.00
2022-12-25T16:37:32.848Z,10.40
2022-12-25T16:40:35.793Z,10.00
2022-12-25T16:43:38.591Z,10.70
2022-12-25T16:46:41.481Z,9.50
2022-12-25T16:49:44.362Z,7.30
2022-12-25T16:52:47.218Z,9.70
2022-12-25T16:55:50.156Z,7.90
2022-12-25T16:58:53.027Z,8.80
2022-12-25T17:01:55.948Z,8.30
2022-12-25T17:05:00.674Z,11.20
2022-12-25T17:08:03.715Z,11.40
2022-12-25T17:11:06.766Z,10.10
2022-12-25T17:14:10.752Z,9.30
2022-12-25T17:17:13.698Z,10.10
2022-12-25T17:20:16.650Z,9.80
2022-12-25T17:23:20.940Z,8.90
2022-12-25T17:26:25.041Z,8.20
2022-12-25T17:29:27.965Z,8.30
2022-12-25T17:32:31.012Z,14.30
2022-12-25T17:35:37.187Z,12.10
2022-12-25T17:38:40.547Z,9.00
2022-12-25T17:41:43.358Z,11.30
2022-12-25T17:44:46.451Z,7.40
2022-12-25T17:47:49.287Z,9.50
2022-12-25T17:50:52.112Z,8.30
2022-12-25T17:53:57.334Z,9.50
2022-12-25T17:57:00.115Z,9.80
2022-12-25T18:00:03.352Z,9.10
2022-12-25T18:03:11.558Z,8.40
2022-12-25T18:06:18.696Z,7.00
2022-12-25T18:09:21.775Z,10.00
2022-12-25T18:12:24.616Z,8.90
2022-12-25T18:15:27.510Z,7.90
2022-12-25T18:18:31.212Z,8.40
2022-12-25T18:21:34.571Z,4.90
2022-12-25T18:24:37.949Z,6.70
2022-12-25T18:27:40.848Z,3.90
2022-12-25T18:30:45.196Z,4.80
2022-12-25T18:33:48.297Z,6.00
2022-12-25T18:36:51.109Z,5.30
2022-12-25T18:39:54.036Z,4.20
2022-12-25T18:43:02.997Z,5.90
2022-12-25T18:46:06.908Z,4.90
2022-12-25T18:49:11.146Z,3.30
2022-12-25T18:52:48.868Z,4.60
2022-12-25T18:55:40.773Z,5.60
2022-12-25T18:58:43.839Z,4.10
2022-12-25T19:01:46.927Z,4.50
2022-12-25T19:04:49.936Z,5.00
2022-12-25T19:07:53.111Z,4.10
2022-12-25T19:10:56.265Z,2.60
2022-12-25T19:13:59.239Z,5.40
2022-12-25T19:17:04.963Z,4.10
2022-12-25T19:20:08.589Z,5.70
2022-12-25T19:23:11.404Z,4.30
2022-12-25T19:26:14.269Z,4.30
2022-12-25T19:29:17.555Z,2.40
2022-12-25T19:32:20.627Z,4.20
2022-12-25T19:35:23.677Z,3.90
2022-12-25T19:38:26.559Z,4.20
2022-12-25T19:41:29.452Z,5.40
2022-12-25T19:44:32.333Z,3.70
2022-12-25T19:47:35.158Z,3.30
2022-12-25T19:50:38.021Z,4.50
2022-12-25T19:53:40.851Z,3.10
2022-12-25T19:56:43.794Z,3.20
2022-12-25T19:59:46.614Z,2.30
2022-12-25T20:02:49.605Z,5.70
2022-12-25T20:05:56.757Z,3.50
2022-12-25T20:09:09.281Z,3.70
2022-12-25T20:12:14.855Z,4.00
2022-12-25T20:15:22.795Z,4.00
2022-12-25T20:18:25.723Z,3.40
2022-12-25T20:21:30.139Z,3.70
2022-12-25T20:24:33.075Z,3.70
2022-12-25T20:27:36.142Z,3.40
2022-12-25T20:30:40.191Z,3.40
2022-12-25T20:33:43.907Z,4.60
2022-12-25T20:36:46.784Z,3.40
2022-12-25T20:39:49.604Z,4.90
2022-12-25T20:42:52.399Z,2.80
2022-12-25T20:45:55.576Z,4.00
2022-12-25T20:48:58.708Z,3.10
2022-12-25T20:52:05.365Z,3.00
2022-12-25T20:55:08.770Z,4.20
2022-12-25T20:58:11.899Z,4.30
2022-12-25T21:01:18.081Z,4.50
2022-12-25T21:04:21.484Z,2.30
2022-12-25T21:07:24.289Z,2.30
2022-12-25T21:10:27.483Z,4.60
2022-12-25T21:13:36.486Z,5.10
2022-12-25T21:16:39.393Z,2.90
2022-12-25T21:19:42.302Z,1.60
2022-12-25T21:22:45.215Z,2.20
2022-12-25T21:25:48.905Z,2.00
2022-12-25T21:28:55.102Z,5.30
2022-12-25T21:35:19.617Z,3.30
2022-12-25T21:38:22.501Z,4.00
2022-12-25T21:41:26.664Z,2.70
2022-12-25T21:44:29.456Z,2.00
2022-12-25T21:48:00.419Z,4.80
2022-12-25T21:51:14.034Z,4.20
2022-12-25T21:54:19.483Z,4.40
2022-12-25T21:57:22.323Z,2.90
2022-12-25T22:00:25.133Z,3.90
2022-12-25T22:03:28.154Z,4.40
2022-12-25T22:06:50.544Z,3.70
2022-12-25T22:09:53.502Z,4.70
2022-12-25T22:13:14.786Z,3.90
2022-12-25T22:16:36.374Z,2.30
2022-12-25T22:19:45.452Z,3.70
2022-12-25T22:22:48.525Z,2.20
2022-12-25T22:25:51.328Z,2.40
2022-12-25T22:28:54.166Z,3.70
2022-12-25T22:31:56.946Z,5.80
2022-12-25T22:35:00.628Z,3.80
2022-12-25T22:38:03.469Z,3.80
2022-12-25T22:41:07.044Z,4.10
2022-12-25T22:44:18.252Z,3.80
2022-12-25T22:47:21.965Z,5.80
2022-12-25T22:50:24.804Z,4.70
2022-12-25T22:53:27.611Z,4.40
2022-12-25T22:56:30.473Z,3.50
2022-12-25T22:59:33.398Z,4.60
2022-12-25T23:02:36.568Z,3.20
2022-12-25T23:05:39.756Z,2.90
2022-12-25T23:08:42.665Z,3.50
2022-12-25T23:11:45.908Z,5.30
2022-12-25T23:14:48.715Z,6.00
2022-12-25T23:18:10.254Z,5.70
2022-12-25T23:21:34.731Z,4.00
2022-12-25T23:24:56.478Z,4.80
2022-12-25T23:27:59.297Z,3.40
2022-12-25T23:31:02.948Z,4.00
2022-12-25T23:34:06.959Z,4.10
2022-12-25T23:37:10.808Z,4.40
2022-12-25T23:40:13.605Z,4.40
2022-12-25T23:43:16.385Z,4.50
2022-12-25T23:46:19.831Z,5.60
2022-12-25T23:49:24.729Z,3.80
2022-12-25T23:52:27.604Z,4.10
2022-12-25T23:55:30.378Z,3.40
2022-12-25T23:58:33.228Z,4.10
